Tiempo atmosférico en la estación meteorológica de Vigo Aeropuerto, Pontevedra (261 m.)



Fecha
DESCASC
Temp. máxima en grados centígrados (hora)
DESCASC
Temp. mínima en grados centígrados (hora)
DESCASC
Temp. media en grados centígrados
DESCASC
Racha de viento máxima en m/sg (hora)
DESCASC
Velocidad máxima media en intervalos de 10 minutos(hora)
DESCASC
Precipitaciones diarias en mm
DESCASC
Precipitaciones de 00:00 a 06:00 en mm
DESCASC
Precipitaciones de 06:00 a 12:00 en mm
DESCASC
Precipitaciones de 12:00 a 18:00 en mm
DESCASC
Precipitaciones de 18:00 a 24:00 en mm
DESCASC
18-08-2019 22.3 (15:50) 16.3 (23:40) 19.3 11.67 (17:10) 6.39 (16:50) 14.7 1.4 13.3 0 0
17-08-2019 24.6 (15:20) 17 (02:40) 20.8 9.72 (18:30) 6.94 (18:30) 0 0 0 0 0
16-08-2019 23.8 (15:00) 14.4 (07:50) 19.1 8.89 (15:30) 6.39 (16:20) 0 0 0 0 0
15-08-2019 25.2 (16:30) 14.8 (00:00) 20 9.17 (15:20) 6.11 (15:10) 0 0 0 0 0
14-08-2019 23.5 (14:40) 13.9 (00:00) 18.7 7.22 (21:10) 4.44 (21:00) 0 0 0 0 0
13-08-2019 23.5 (14:30) 10.9 (00:00) 17.2 10.28 (17:50) 6.67 (18:10) 0 0 0 0 0
12-08-2019 22 (16:40) 11.6 (00:00) 16.8 9.17 (18:40) 6.39 (18:40) 0 0 0 0 0
11-08-2019 20.2 (15:00) 12.6 (00:00) 16.4 9.17 (13:10) 5.83 (15:20) 0 0 0 0 0
10-08-2019 21.6 (13:30) 15.5 (00:00) 18.6 9.72 (18:20) 6.39 (18:10) 0.9 0 0.9 0 0
09-08-2019 21.5 (15:00) 17.3 (00:00) 19.4 13.33 (16:20) 7.78 (13:50) 0.8 0.3 0 0.5 0
08-08-2019 22.2 (16:00) 17.8 (00:00) 20 16.94 (16:30) 11.39 (17:30) 14.5 0.1 2.7 2.1 9.6
07-08-2019 19.8 (19:00) 17.3 (00:00) 18.5 11.67 (16:40) 7.22 (22:20) 16.3 0 7.1 8.5 0.7
06-08-2019 22.6 (13:00) 17.6 (00:00) 20.1 7.78 (14:50) 6.11 (14:50) 0.1 0 0 0.1 0
05-08-2019 25.1 (15:40) 14.1 (00:00) 19.6 10.28 (17:10) 6.11 (17:00) 0 0 0 0 0
04-08-2019 23.6 (14:30) 16.3 (00:00) 19.9 10.83 (16:10) 7.22 (16:20) 0 0 0 0 0
03-08-2019 25.1 (14:20) 14.4 (00:00) 19.8 8.89 (14:40) 6.39 (18:00) 0 0 0 0 0
02-08-2019 25.6 (12:40) 15.6 (00:00) 20.6 10.83 (21:50) 6.39 (17:10) 0 0 0 0 0
01-08-2019 26.6 (14:20) 12.9 (00:00) 19.8 9.72 (17:10) 6.94 (17:10) 0 0 0 0 0
31-07-2019 26 (17:30) 11.3 (00:00) 18.7 9.17 (20:00) 6.11 (20:20) 0 0 0 0 0
30-07-2019 23 (15:20) 11.9 (00:00) 17.4 10.83 (16:30) 6.39 (23:20) 0 0 0 0 0
29-07-2019 20.1 (15:40) 14.4 (00:00) 17.3 10.28 (14:40) 6.39 (16:00) 4.7 4.3 0.2 0.2 0
28-07-2019 23.3 (16:10) 12 (00:00) 17.6 10.28 (17:50) 7.22 (18:30) 0 0 0 0 0
27-07-2019 22.2 (18:40) 14.2 (00:00) 18.2 9.72 (05:50) 6.11 (06:20) 3.8 1.3 2.1 0.4 0
26-07-2019 21.5 (16:40) 15.7 (00:00) 18.6 15 (13:20) 7.22 (17:30) 1.8 1.8 0 0 0
25-07-2019 21 (11:40) 17 (00:00) 19 11.67 (12:50) 8.33 (12:40) 2 0 0 2 0
24-07-2019 24.5 (17:50) 14.3 (00:00) 19.4 10.28 (14:30) 7.5 (14:30) 0 0 0 0 0
23-07-2019 24.7 (20:00) 17 (00:00) 20.9 10.28 (14:00) 6.67 (14:00) 0 0 0 0 0
22-07-2019 31.1 (17:00) 16.7 (00:00) 23.9 11.39 (01:50) 4.17 (14:00) 0 0 0 0 0

Gráficas

Temp. máximas Temp. mínimas Temp. medias Precipitaciones Rachas de viento máximas Velocidades máximas media en intervalos de 10 minutos

Datos horarios

Fecha y hora oficial Temperatura (ºC) Velocidad del viento (km/h) Dirección del viento Racha (km/h) Dirección de racha Precipitación (mm) Presión (hPa) Tendencia (hPa) Humedad (%)
2019-08-20 23:00:00 21.1 13 Norte 35 Norte 0 989.5 0.6 65
2019-08-20 22:00:00 21.8 23 Norte 33 Norte 0 988.8 -0.1 63
2019-08-20 21:00:00 22.7 22 Norte 37 Norte 0 988.8 -0.1 60
2019-08-20 20:00:00 24.2 21 Norte 33 Norte 0 988.9 -0.3 56
2019-08-20 19:00:00 25.5 21 Norte 32 Norte 0 988.9 -1 53
2019-08-20 18:00:00 26.1 16 Norte 24 Norte 0 988.9 -1.4 52
2019-08-20 17:00:00 26.3 9 Nordeste 21 Nordeste 0 989.2 -1.6 49
2019-08-20 16:00:00 25.7 9 Norte 18 Norte 0 989.9 -1.1 51
2019-08-20 15:00:00 25.6 10 Nordeste 24 Norte 0 990.3 -1 52
2019-08-20 14:00:00 23.9 9 Norte 26 Noroeste 0 990.8 -0.4 56
2019-08-20 13:00:00 22.6 9 Nordeste 18 Norte 0 991 -0.2 59
2019-08-20 12:00:00 21.3 7 Nordeste 13 Nordeste 0 991.3 0.6 63
2019-08-20 11:00:00 19.6 8 Nordeste 13 Norte 0 991.2 0.8 66
2019-08-20 10:00:00 18.2 6 Nordeste 17 Nordeste 0 991.2 1.2 73
2019-08-20 09:00:00 15.5 9 Nordeste 18 Norte 0 990.7 1.1 82
2019-08-20 08:00:00 13.4 12 Norte 21 Norte 0 990.4 0.9 88
2019-08-20 07:00:00 13.4 12 Norte 24 Noroeste 0 990 0.8 88
2019-08-20 06:00:00 13 10 Norte 18 Norte 0 989.6 0.1 92
2019-08-20 05:00:00 13.6 11 Norte 18 Norte 0 989.5 -0.3 87
2019-08-20 04:00:00 13.9 10 Nordeste 26 Norte 0 989.2 -0.5 85
2019-08-20 03:00:00 15 13 Nordeste 37 Norte 0 989.5 -0.2 78
2019-08-20 02:00:00 15.4 20 Norte 37 Norte 0 989.8 0.4 75
2019-08-20 01:00:00 16 21 Norte 41 Norte 0 989.7 1 70
2019-08-20 00:00:00 16.6 21 Norte 42 Norte 0 989.7 1.2 68
2019-08-19 23:00:00 17.1 21 Norte 37 Norte 0 989.4 1.3 70
2019-08-19 22:00:00 17.9 23 Norte 39 Norte 0 988.7 0.5 69
2019-08-19 21:00:00 18.8 23 Norte 45 Norte 0 988.5 0.4 68
2019-08-19 20:00:00 20.3 27 Norte 46 Norte 0 988.1 -0.2 65
2019-08-19 19:00:00 21 33 Norte 48 Norte 0 988.2 -0.3 61
2019-08-19 18:00:00 22.8 26 Norte 48 Noroeste 0 988.1 -0.7 51
2019-08-19 17:00:00 22.8 25 Norte 39 Norte 0 988.3 -0.6 52
2019-08-19 16:00:00 23.1 21 Norte 42 Noroeste 0 988.5 -0.7 50
2019-08-19 15:00:00 22.6 20 Norte 37 Norte 0 988.8 -0.5 49
2019-08-19 14:00:00 21.4 23 Norte 37 Norte 0 988.9 -0.3 51
2019-08-19 13:00:00 20.7 21 Norte 33 Norte 0 989.2 0.3 56
2019-08-19 12:00:00 19.3 19 Norte 30 Norte 0 989.3 0.4 62
2019-08-19 11:00:00 17.9 13 Norte 24 Norte 0 989.2 0.3 68
2019-08-19 10:00:00 16.7 9 Nordeste 17 Norte 0 988.9 0.1 74
2019-08-19 09:00:00 14.1 5 Este 26 Norte 0 988.9 0.3 84
2019-08-19 08:00:00 13.2 8 Nordeste 26 Norte 0 988.9 0.5 84
2019-08-19 07:00:00 13.6 17 Norte 28 Norte 0 988.8 -0.2 81
2019-08-19 06:00:00 14.1 13 Norte 22 Norte 0 988.6 -0.8 78
2019-08-19 05:00:00 14.2 15 Norte 24 Norte 0 988.4 -1.1 78
2019-08-19 04:00:00 13.6 12 Norte 21 Norte 0 989 -0.5 86
2019-08-19 03:00:00 13.9 10 Nordeste 21 Nordeste 0 989.4 -0.1 84
2019-08-19 02:00:00 15.2 14 Norte 32 Norte 0 989.5 0.6 72
2019-08-19 01:00:00 15.8 20 Norte 33 Norte 0 989.5 1.4 71
2019-08-19 00:00:00 16.3 19 Norte 32 Norte 0 989.5 2.1 72
2019-08-18 23:00:00 16.8 18 Norte 33 Norte 0 988.9 1.4 70
2019-08-18 22:00:00 17.6 21 Norte 33 Norte 0 988.1 0.8 70
2019-08-18 21:00:00 18.8 17 Noroeste 28 Noroeste 0 987.4 0.1 69
2019-08-18 20:00:00 19.6 12 Oeste 26 Sudoeste 0 987.5 0.4 71
2019-08-18 19:00:00 20.3 17 Oeste 41 Oeste 0 987.3 0.4 68
2019-08-18 18:00:00 20.7 21 Oeste 42 Oeste 0 987.3 0.5 67
2019-08-18 17:00:00 21.4 21 Oeste 32 Oeste 0 987.1 0.5 66
2019-08-18 16:00:00 21.9 12 Nordeste 28 Nordeste 0 986.9 0.4 66
2019-08-18 15:00:00 21 14 Norte 37 Noroeste 0 986.8 0.5 71
2019-08-18 14:00:00 20.6 14 Norte 30 Norte 0 986.6 1.1 76
2019-08-18 13:00:00 19.1 17 Norte 32 Norte 0 986.5 1.8 81
2019-08-18 12:00:00 18.1 15 Norte 28 Norte 0 986.3 2.4 90
2019-08-18 11:00:00 18.2 22 Norte 30 Norte 0 985.5 2.2 90
2019-08-18 10:00:00 17.3 8 Norte 15 Norte 0.5 984.7 1.9 99
2019-08-18 09:00:00 17.6 6 Norte 18 Oeste 0.1 983.9 1 99
2019-08-18 08:00:00 18.3 12 Sudoeste 30 Sudoeste 7.9 983.3 0 99
2019-08-18 07:00:00 19.2 8 Sudoeste 22 Sur 4.8 982.8 -1 99
2019-08-18 06:00:00 19.2 13 Sur 21 Sur 1.4 982.9 -1.5 98
2019-08-18 05:00:00 19.4 14 Sur 21 Sur 0 983.3 -1.6 97
2019-08-18 04:00:00 19.3 13 Sur 22 Sur 0 983.8 -1.4 97
2019-08-18 03:00:00 19.2 13 Sur 21 Sur 0 984.4 -1.4 96
2019-08-18 02:00:00 19.3 11 Sur 18 Sur 0 984.9 -0.7 95
2019-08-18 01:00:00 19.7 10 Sur 15 Sur 0 985.2 0 90
2019-08-18 00:00:00 20.2 9 Sur 15 Sudoeste 0 985.8 0.5 86
2019-08-17 23:00:00 20.5 9 Sudoeste 13 Sudoeste 0 985.6 0 82
2019-08-17 22:00:00 20.9 11 Sudoeste 21 Sudoeste 0 985.2 -0.6 82
2019-08-17 21:00:00 20.9 15 Oeste 33 Noroeste 0 985.3 -0.6 85
2019-08-17 20:00:00 20.8 16 Sudoeste 30 Oeste 0 985.6 -0.5 87
2019-08-17 19:00:00 21.7 22 Oeste 35 Oeste 0 985.8 -0.6 82
2019-08-17 18:00:00 22.3 25 Oeste 33 Oeste 0 985.9 -0.8 79
2019-08-17 17:00:00 23.8 14 Oeste 26 Noroeste 0 986.1 -1 67
2019-08-17 16:00:00 23.8 16 Oeste 24 Oeste 0 986.4 -0.9 72
2019-08-17 15:00:00 23.3 14 Oeste 24 Oeste 0 986.7 -0.8 74
2019-08-17 14:00:00 23.3 11 Sudoeste 18 Sur 0 987.1 -0.6 72
2019-08-17 13:00:00 22.8 10 Sur 21 Sur 0 987.3 -0.4 72
2019-08-17 12:00:00 21.4 12 Sur 17 Sur 0 987.5 0 76
2019-08-17 11:00:00 20 10 Sur 18 Sur 0 987.7 0.1 82
2019-08-17 10:00:00 19.1 13 Sur 18 Sur 0 987.7 -0.1 86
2019-08-17 09:00:00 18.1 12 Sur 21 Sur 0 987.5 -0.2 91
2019-08-17 08:00:00 17.6 13 Sur 17 Sur 0 987.6 -0.3 94
2019-08-17 07:00:00 17.6 11 Sur 17 Sudoeste 0 987.8 -0.5 95
2019-08-17 06:00:00 17.2 13 Sur 17 Sur 0 987.7 -1 96
2019-08-17 05:00:00 18.2 7 Sudoeste 9 Sudoeste 0 987.9 -1.1 92
2019-08-17 04:00:00 17.5 4 Sudeste 8 Sudeste 0 988.3 -0.8 95
2019-08-17 03:00:00 17.1 5 Oeste 9 Oeste 0 988.7 -1 94
2019-08-17 02:00:00 17.3 5 Sudoeste 8 Oeste 0 989 -0.5 93
2019-08-17 01:00:00 18 4 Oeste 9 Sudoeste 0 989.1 -0.1 92
2019-08-17 00:00:00 17.6 4 Oeste 8 Oeste 0 989.7 0.9 92
2019-08-16 23:00:00 18.3 2 Nordeste 18 Oeste 0 989.5 0.7 91
2019-08-16 22:00:00 18.8 11 Oeste 24 Oeste 0 989.2 0.3 88
2019-08-16 21:00:00 19.5 17 Oeste 26 Oeste 0 988.8 -0.3 84
2019-08-16 20:00:00 21.2 18 Oeste 26 Oeste 0 988.8 -0.6 77
2019-08-16 19:00:00 22.2 18 Oeste 26 Oeste 0 988.9 -0.7 72
2019-08-16 18:00:00 23.1 15 Oeste 28 Oeste 0 989.1 -0.6 65
2019-08-16 17:00:00 22.7 18 Oeste 30 Oeste 0 989.4 -0.4 66
2019-08-16 16:00:00 23 22 Oeste 32 Oeste 0 989.6 -0.1 64
2019-08-16 15:00:00 23.1 16 Oeste 30 Sudoeste 0 989.7 -0.2 64
2019-08-16 14:00:00 22.9 18 Oeste 26 Oeste 0 989.8 0.4 63
2019-08-16 13:00:00 22.8 12 Oeste 21 Oeste 0 989.7 0.1 64
2019-08-16 12:00:00 21.4 5 Sur 15 Sudeste 0 989.9 0.3 74
2019-08-16 11:00:00 20.8 6 Sudoeste 17 Oeste 0 989.4 0 75
2019-08-16 10:00:00 18 4 Sudoeste 9 Sur 0 989.6 0.3 88
2019-08-16 09:00:00 17.2 4 Este 8 Sudeste 0 989.6 0.4 92
2019-08-16 08:00:00 15 4 Nordeste 11 Oeste 0 989.4 0.2 97
2019-08-16 07:00:00 14.6 5 Oeste 9 Oeste 0 989.3 -0.3 94
2019-08-16 06:00:00 15.4 4 Norte 8 Noroeste 0 989.2 -0.7 92
2019-08-16 05:00:00 15.5 6 Noroeste 9 Noroeste 0 989.2 -1 93
2019-08-16 04:00:00 15.9 5 Noroeste 9 Oeste 0 989.6 -0.5 92
2019-08-16 03:00:00 17 4 Noroeste 11 Norte 0 989.9 -0.5 89
2019-08-16 02:00:00 17.7 4 Oeste 9 Sudoeste 0 990.2 -0.3 86
2019-08-16 01:00:00 19.1 8 Norte 13 Norte 0 990.1 -0.2 77
2019-08-16 00:00:00 20.1 11 Norte 18 Norte 0 990.4 0.3 72
2019-08-15 23:00:00 20.9 10 Norte 15 Norte 0 990.5 0.5 69
2019-08-15 22:00:00 19.8 8 Oeste 17 Sudoeste 0 990.3 0.1 80
2019-08-15 21:00:00 21.2 7 Oeste 28 Oeste 0 990.1 -0.4 75
2019-08-15 20:00:00 22.7 19 Oeste 26 Oeste 0 990 -0.7 69
2019-08-15 19:00:00 23.8 19 Oeste 28 Oeste 0 990.2 -1 65
2019-08-15 18:00:00 24.5 20 Oeste 28 Oeste 0 990.5 -1 63
2019-08-15 17:00:00 24.7 19 Oeste 28 Oeste 0 990.7 -0.8 60
2019-08-15 16:00:00 24.4 18 Oeste 33 Oeste 0 991.2 -0.6 61
2019-08-15 15:00:00 23.8 20 Oeste 30 Oeste 0 991.5 -0.3 63
2019-08-15 14:00:00 24.1 18 Sudoeste 26 Oeste 0 991.5 -0.1 60
2019-08-15 13:00:00 23.8 15 Oeste 28 Sudoeste 0 991.8 0.3 52
2019-08-15 12:00:00 24.1 6 Sudoeste 22 Norte 0 991.8 0.5 61
2019-08-15 11:00:00 22.4 6 Este 11 Este 0 991.6 0.2 67
2019-08-15 10:00:00 20.4 4 Sudeste 9 Sudeste 0 991.5 0.4 75
2019-08-15 09:00:00 16.8 5 Sudoeste 9 Sudoeste 0 991.3 0.1 93
2019-08-15 08:00:00 15.5 4 Nordeste 9 Noroeste 0 991.4 0.2 91
2019-08-15 07:00:00 15.3 4 Noroeste 11 Norte 0 991.1 -0.6 98
2019-08-15 06:00:00 16.2 5 Norte 11 Norte 0 991.2 -0.9 99
2019-08-15 05:00:00 16.7 5 Norte 18 Norte 0 991.2 -1.3 99
2019-08-15 04:00:00 17.5 12 Norte 18 Norte 0 991.7 -0.8 100
2019-08-15 03:00:00 17.8 10 Nordeste 18 Nordeste 0 992.1 -0.2 99
2019-08-15 02:00:00 18.1 6 Norte 11 Oeste 0 992.5 0.4 99
2019-08-15 01:00:00 18 5 Oeste 15 Noroeste 0 992.5 0.7 98
2019-08-15 00:00:00 18.2 5 Oeste 11 Noroeste 0 992.3 0.8 98
2019-08-14 23:00:00 18.2 7 Oeste 15 Oeste 0 992.1 0.8 98
2019-08-14 22:00:00 18.8 11 Oeste 26 Sudoeste 0 991.8 0.2 96
2019-08-14 21:00:00 20.2 16 Oeste 24 Oeste 0 991.5 -0.4 90
2019-08-14 20:00:00 22.1 7 Norte 15 Norte 0 991.3 -0.5 80
2019-08-14 19:00:00 22.3 6 Noroeste 18 Norte 0 991.6 -0.4 79
2019-08-14 18:00:00 22.2 8 Noroeste 22 Noroeste 0 991.9 -0.3 78
2019-08-14 17:00:00 22.8 10 Noroeste 17 Noroeste 0 991.8 -0.5 74
2019-08-14 16:00:00 23 9 Oeste 18 Noroeste 0 992 -0.6 73
2019-08-14 15:00:00 22.7 8 Nordeste 17 Nordeste 0 992.2 -0.3 75
2019-08-14 14:00:00 23.1 11 Nordeste 17 Nordeste 0 992.3 0.5 71
2019-08-14 13:00:00 22.2 6 Nordeste 13 Este 0 992.6 0.7 73
2019-08-14 12:00:00 21.3 5 Este 13 Este 0 992.5 1 69
2019-08-14 11:00:00 20.6 8 Sur 13 Sur 0 991.8 0.7 67
2019-08-14 10:00:00 17.9 2 Sudeste 8 Este 0 991.9 0.8 80
2019-08-14 09:00:00 17.2 3 Este 8 Oeste 0 991.5 0.5 81
2019-08-14 08:00:00 14.7 5 Sudoeste 11 Sudoeste 0 991.1 -0.6 89
2019-08-14 07:00:00 14.2 0 Calma 11 Norte 0 991.1 -0.6 93
2019-08-14 06:00:00 14.5 7 Oeste 11 Oeste 0 991 -0.3 91
2019-08-14 05:00:00 14.8 6 Norte 11 Norte 0 991.7 0.3 93
2019-08-14 04:00:00 14.7 5 Norte 9 Noroeste 0 991.7 0.3 93
2019-08-14 03:00:00 14.8 2 Noroeste 11 Norte 0 991.3 -0.5 90
2019-08-14 02:00:00 15.2 8 Norte 13 Noroeste 0 991.4 -0.3 87
2019-08-14 01:00:00 14.7 5 Noroeste 11 Oeste 0 991.4 -0.1 89
2019-08-14 00:00:00 15.7 10 Oeste 26 Oeste 0 991.8 0.4 82
2019-08-13 23:00:00 16 11 Oeste 26 Oeste 0 991.7 0.5 80
2019-08-13 22:00:00 16.8 17 Oeste 30 Oeste 0 991.5 0.2 80
2019-08-13 21:00:00 18.6 17 Oeste 35 Oeste 0 991.4 0.1 73
2019-08-13 20:00:00 20.3 17 Oeste 28 Oeste 0 991.2 0.1 65
2019-08-13 19:00:00 21 18 Oeste 35 Oeste 0 991.3 -0.2 63
2019-08-13 18:00:00 21.2 23 Oeste 37 Noroeste 0 991.3 -0.6 61
2019-08-13 17:00:00 22.1 22 Oeste 32 Sudoeste 0 991.1 -0.9 58
2019-08-13 16:00:00 22.7 11 Oeste 24 Oeste 0 991.5 -0.6 55
2019-08-13 15:00:00 22.6 10 Oeste 24 Noroeste 0 991.9 -0.3 53
2019-08-13 14:00:00 22.1 7 Nordeste 21 Sudoeste 0 992 -0.1 55
2019-08-13 13:00:00 21.5 4 Norte 13 Sur 0 992.1 0 56
2019-08-13 12:00:00 18.9 4 Sudoeste 11 Sudeste 0 992.2 0.4 59
2019-08-13 11:00:00 17.7 4 Este 13 Este 0 992.1 0.5 65
2019-08-13 10:00:00 15.6 5 Este 9 Este 0 992.1 0.6 74
2019-08-13 09:00:00 12.4 3 Sur 8 Sudoeste 0 991.8 0.6 83
2019-08-13 08:00:00 11 2 Sudoeste 9 Sudoeste 0 991.6 0.2 86
2019-08-13 07:00:00 11.7 2 Norte 9 Noroeste 0 991.5 -0.1 84
2019-08-13 06:00:00 12 2 Norte 13 Norte 0 991.2 -1 82
2019-08-13 05:00:00 12.4 4 Norte 11 Norte 0 991.4 -1.6 88
2019-08-13 04:00:00 13 6 Nordeste 17 Norte 0 991.6 -1.3 84
2019-08-13 03:00:00 13.6 9 Norte 21 Norte 0 992.2 -0.8 84
2019-08-13 02:00:00 14.3 14 Norte 28 Norte 0 993 -0.4 83
2019-08-13 01:00:00 15.1 18 Norte 30 Norte 0 992.9 0.2 79
2019-08-13 00:00:00 15.8 22 Norte 33 Norte 0 993 0.6 75
2019-08-12 23:00:00 16.6 17 Norte 32 Norte 0 993.4 1.4 67
2019-08-12 22:00:00 17.6 19 Norte 32 Norte 0 992.7 0.9 63
2019-08-12 21:00:00 19.2 20 Norte 30 Norte 0 992.4 0.3 55
2019-08-12 20:00:00 20.6 21 Norte 32 Norte 0 992 -0.3 54
2019-08-12 19:00:00 21.1 19 Norte 33 Norte 0 991.8 -1.2 54
2019-08-12 18:00:00 21.4 18 Norte 30 Norte 0 992.1 -1.4 56
2019-08-12 17:00:00 21 15 Norte 28 Noroeste 0 992.3 -1.5 50
2019-08-12 16:00:00 21 13 Noroeste 32 Norte 0 993 -1 49
2019-08-12 15:00:00 21.4 18 Norte 28 Norte 0 993.5 -0.5 49
2019-08-12 14:00:00 19.7 15 Norte 30 Norte 0 993.8 -0.1 57
2019-08-12 13:00:00 20.1 10 Norte 22 Norte 0 994 0 56
2019-08-12 12:00:00 19.5 12 Nordeste 21 Nordeste 0 994 0.4 59
2019-08-12 11:00:00 17.4 9 Norte 17 Norte 0 993.9 0.8 69
2019-08-12 10:00:00 15.9 8 Nordeste 15 Nordeste 0 994 1.2 81
2019-08-12 09:00:00 14.1 7 Norte 13 Norte 0 993.6 1 86
2019-08-12 08:00:00 12.3 5 Noroeste 13 Oeste 0 993.1 0.5 89
2019-08-12 07:00:00 12.3 5 Norte 8 Norte 0 992.8 -0.1 93
2019-08-12 06:00:00 12.1 4 Noroeste 8 Noroeste 0 992.6 -0.5 94
2019-08-12 05:00:00 12.5 3 Norte 8 Noroeste 0 992.6 -0.6 93
2019-08-12 04:00:00 13.2 4 Noroeste 8 Norte 0 992.9 -0.3 94
2019-08-12 03:00:00 13.3 5 Noroeste 9 Noroeste 0 993.1 -0.1 93
2019-08-12 02:00:00 13.6 4 Noroeste 8 Noroeste 0 993.2 0.2 91
2019-08-12 01:00:00 14.2 4 Oeste 11 Noroeste 0 993.2 0.8 88
2019-08-12 00:00:00 14.9 3 Norte 24 Oeste 0 993.2 1.3 86
2019-08-11 23:00:00 15.5 9 Oeste 32 Oeste 0 993 1.5 84
2019-08-11 22:00:00 16.1 10 Noroeste 17 Oeste 0 992.4 0.8 81
2019-08-11 21:00:00 16.9 8 Noroeste 21 Noroeste 0 991.9 0.5 75
2019-08-11 20:00:00 17.9 12 Noroeste 26 Noroeste 0 991.5 0.2 70
2019-08-11 19:00:00 19.2 13 Oeste 28 Oeste 0 991.6 0.3 62
2019-08-11 18:00:00 20 14 Oeste 33 Oeste 0 991.4 0.1 61
2019-08-11 17:00:00 19.7 20 Oeste 33 Sudoeste 0 991.3 -0.1 65
2019-08-11 16:00:00 19.6 21 Oeste 33 Oeste 0 991.3 -0.2 65
2019-08-11 15:00:00 20 17 Oeste 33 Oeste 0 991.3 0 61
2019-08-11 14:00:00 19.1 19 Oeste 33 Oeste 0 991.4 0.5 65
2019-08-11 13:00:00 19.3 14 Oeste 28 Oeste 0 991.5 0.8 65
2019-08-11 12:00:00 17.7 8 Sudeste 17 Sur 0 991.3 1 82
2019-08-11 11:00:00 17.5 9 Sur 15 Sur 0 990.9 0.8 80
2019-08-11 10:00:00 16.5 5 Sudeste 11 Sur 0 990.7 1 87
2019-08-11 09:00:00 13.9 7 Sudoeste 11 Sudoeste 0 990.3 0.7 98
2019-08-11 08:00:00 12.7 4 Oeste 11 Oeste 0 990.1 0.3 98
2019-08-11 07:00:00 13.6 4 Norte 9 Noroeste 0 989.7 -0.3 95
2019-08-11 06:00:00 13.1 2 Norte 8 Norte 0 989.6 -0.8 94
2019-08-11 05:00:00 13.4 4 Noroeste 9 Noroeste 0 989.8 -1 93
2019-08-11 04:00:00 13.8 7 Noroeste 9 Norte 0 990 -1 93
2019-08-11 03:00:00 14.5 5 Noroeste 9 Norte 0 990.4 -0.6 91
2019-08-11 02:00:00 15.1 8 Oeste 13 Oeste 0 990.8 -0.3 88
2019-08-11 01:00:00 14.6 6 Oeste 11 Oeste 0 991 0 89
2019-08-11 00:00:00 15.8 9 Noroeste 22 Noroeste 0 991 0 84
2019-08-10 23:00:00 16.4 10 Noroeste 18 Oeste 0 991.1 0.2 84
2019-08-10 22:00:00 16.9 8 Noroeste 33 Noroeste 0 991 0 84
2019-08-10 21:00:00 17.5 6 Oeste 13 Oeste 0 991 0.2 81
2019-08-10 20:00:00 18.3 8 Noroeste 30 Oeste 0 990.9 -0.2 73
2019-08-10 19:00:00 19.7 20 Oeste 35 Oeste 0 991 -0.1 62
2019-08-10 18:00:00 19.9 20 Oeste 32 Oeste 0 990.8 -0.7 66
2019-08-10 17:00:00 20.3 21 Oeste 30 Oeste 0 991.1 -0.3 66
2019-08-10 16:00:00 20.9 17 Oeste 30 Sudoeste 0 991.1 -0.5 57
2019-08-10 15:00:00 20.9 17 Oeste 28 Oeste 0 991.5 -0.1 63
2019-08-10 14:00:00 20.9 14 Oeste 24 Oeste 0 991.4 -0.2 60
2019-08-10 13:00:00 20.8 10 Oeste 18 Oeste 0 991.6 0.1 63
2019-08-10 12:00:00 19.8 9 Sudoeste 15 Sudoeste 0 991.6 0.6 68
2019-08-10 11:00:00 17.9 6 Sudoeste 11 Sur 0 991.6 1.1 89
2019-08-10 10:00:00 16.2 9 Sudoeste 15 Sudoeste 0.9 991.5 1.1 96
2019-08-10 09:00:00 16 10 Sur 13 Sur 0 991 1.2 98
2019-08-10 08:00:00 15.6 9 Sudoeste 15 Sur 0 990.5 0.6 99
2019-08-10 07:00:00 15.8 9 Sur 17 Sur 0 990.4 0.7 98
2019-08-10 06:00:00 16.2 10 Sur 13 Sur 0 989.8 0.2 96
2019-08-10 05:00:00 16.1 4 Sur 9 Sudoeste 0 989.9 0 94
2019-08-10 04:00:00 16.4 4 Sudoeste 13 Sur 0 989.7 0 93
2019-08-10 03:00:00 16.3 7 Sudoeste 11 Sudoeste 0 989.6 0.1 94
2019-08-10 02:00:00 16.7 6 Sudoeste 13 Sudoeste 0 989.9 0.7 92
2019-08-10 01:00:00 17.1 9 Sudoeste 15 Sudoeste 0 989.7 1.1 89
2019-08-10 00:00:00 17.3 7 Sudoeste 15 Sudoeste 0 989.5 1.3 90
2019-08-09 23:00:00 17.7 8 Sudoeste 28 Sudoeste 0 989.2 1.4 88
2019-08-09 22:00:00 18.2 14 Sudoeste 26 Oeste 0 988.6 1.3 84
2019-08-09 21:00:00 18.8 19 Sudoeste 32 Sudoeste 0 988.2 1.1 81
2019-08-09 20:00:00 19.4 18 Sudoeste 30 Sudoeste 0 987.8 0.7 77
2019-08-09 19:00:00 20.2 16 Oeste 37 Sudoeste 0 987.3 0.4 70
2019-08-09 18:00:00 20 23 Sudoeste 41 Oeste 0 987.1 0.7 74
2019-08-09 17:00:00 19.7 24 Sudoeste 48 Sudoeste 0 987.1 1.3 75
2019-08-09 16:00:00 20.3 26 Sudoeste 42 Sudoeste 0.2 986.9 1.8 76
2019-08-09 15:00:00 21.2 22 Sudoeste 41 Sudoeste 0 986.4 1.9 71
2019-08-09 14:00:00 21 27 Sudoeste 45 Sur 0 985.8 1.8 74
2019-08-09 13:00:00 20 21 Sudoeste 41 Sudoeste 0.3 985.1 1.7 83
2019-08-09 12:00:00 20.3 20 Sudoeste 39 Sudoeste 0 984.5 1.5 79
2019-08-09 11:00:00 19.7 20 Sudoeste 37 Sur 0 984 1.4 83
2019-08-09 10:00:00 19.1 15 Sur 32 Sur 0 983.4 1.3 87
2019-08-09 09:00:00 18.6 18 Sur 35 Sur 0 983 1 91
2019-08-09 08:00:00 18.2 13 Sur 28 Sudoeste 0 982.6 0.6 91
2019-08-09 07:00:00 18.2 13 Sur 30 Este 0 982.1 0.2 90
2019-08-09 06:00:00 18.3 13 Sur 30 Sur 0 982 0.4 88
2019-08-09 05:00:00 18 12 Sur 22 Sur 0 982 0.4 93
2019-08-09 04:00:00 18.1 14 Sur 30 Sur 0 981.9 1.2 89
2019-08-09 03:00:00 18.2 15 Sudoeste 33 Sur 0 981.6 1.1 88
2019-08-09 02:00:00 18.6 12 Sudoeste 24 Sudoeste 0 981.6 1.6 90
2019-08-09 01:00:00 18.6 21 Sudoeste 46 Sudoeste 0.3 980.7 1.2 94
2019-08-09 00:00:00 20.3 28 Sudoeste 54 Sur 2.2 980.5 1.2 97
2019-08-08 23:00:00 20.6 25 Sur 48 Sudoeste 1.9 980 0.4 99
2019-08-08 22:00:00 20.6 26 Sur 50 Sur 4.1 979.5 -0.6 99
2019-08-08 21:00:00 20.6 35 Sur 48 Sur 0.3 979.3 -0.7 99
2019-08-08 20:00:00 20.7 32 Sur 50 Sudoeste 0.1 979.6 -0.2 98
2019-08-08 19:00:00 20.7 25 Sur 46 Sur 1 980.1 -0.2 99
2019-08-08 18:00:00 21 32 Sur 55 Sur 0.8 980 -0.7 95
2019-08-08 17:00:00 21.1 35 Sur 61 Sur 0 979.8 -1.3 94
2019-08-08 16:00:00 22.1 27 Sur 55 Sur 0 980.3 -0.8 87
2019-08-08 15:00:00 21.6 31 Sur 45 Sur 0.1 980.7 -0.4 94
2019-08-08 14:00:00 20.9 27 Sur 41 Sur 0.7 981.1 0.5 99
2019-08-08 13:00:00 20.9 23 Sur 33 Sur 0.5 981.1 0.1 99
2019-08-08 12:00:00 20.5 20 Sur 39 Sur 2.6 981.1 0.1 99
2019-08-08 11:00:00 20.3 19 Sur 30 Sur 0.1 980.6 -0.3 100
2019-08-08 10:00:00 19.9 15 Sur 30 Sur 0 981 0.2 100
2019-08-08 09:00:00 19.7 15 Sur 30 Sur 0 981 0.4 100
2019-08-08 08:00:00 19.6 20 Sur 30 Sur 0 980.9 -0.3 100
2019-08-08 07:00:00 19.5 20 Sur 33 Sur 0 980.8 -0.6 100
2019-08-08 06:00:00 19.3 15 Sur 28 Sur 0 980.6 -1.1 100
2019-08-08 05:00:00 19.1 18 Sur 32 Sur 0.1 981.2 -0.6 100
2019-08-08 04:00:00 18.8 21 Sur 33 Sur 0 981.4 -0.5 99
2019-08-08 03:00:00 18.6 19 Sur 32 Sur 0 981.7 -0.5 99
2019-08-08 02:00:00 18.4 22 Sur 37 Sur 0 981.8 -0.7 99
2019-08-08 01:00:00 18 20 Sur 33 Sur 0 981.9 0 99
2019-08-08 00:00:00 17.8 20 Sur 33 Sur 0 982.2 0.4 98
2019-08-07 23:00:00 17.5 22 Sur 42 Sur 0 982.5 0.4 98
2019-08-07 22:00:00 17.4 21 Sur 33 Sur 0 981.9 -0.5 97
2019-08-07 21:00:00 17.3 20 Sur 39 Sur 0.4 981.8 -0.9 97
2019-08-07 20:00:00 19.1 14 Sur 33 Sur 0.3 982.1 -0.7 95
2019-08-07 19:00:00 19.8 18 Sur 35 Sur 0 982.4 -0.6 94
2019-08-07 18:00:00 19.5 18 Sur 35 Sur 0 982.7 -0.6 97
2019-08-07 17:00:00 19.4 25 Sur 42 Sur 0 982.8 -0.7 98
2019-08-07 16:00:00 19.3 18 Sur 32 Sur 0.2 983 -0.2 98
2019-08-07 15:00:00 18.9 18 Sur 33 Sur 2 983.3 0.3 99
2019-08-07 14:00:00 18.8 21 Sur 33 Sur 5.8 983.5 0.5 98
2019-08-07 13:00:00 19.1 19 Sur 28 Sur 0.5 983.2 0.2 98
2019-08-07 12:00:00 18.7 14 Sur 26 Sur 1.6 983 0.4 98
2019-08-07 11:00:00 18.4 17 Sur 30 Sur 3.7 983 0.5 98
2019-08-07 10:00:00 18.4 12 Sur 22 Sur 1.8 983 0.6 98
2019-08-07 09:00:00 18.3 11 Sur 18 Sur 0 982.6 -0.1 96
2019-08-07 08:00:00 18 11 Sur 18 Sur 0 982.5 -0.2 97
2019-08-07 07:00:00 17.9 11 Sur 17 Sur 0 982.4 -0.4 97
2019-08-07 06:00:00 18 12 Sur 17 Sur 0 982.7 -0.5 98
2019-08-07 05:00:00 18.2 8 Sur 11 Sur 0 982.7 -1 97
2019-08-07 04:00:00 18.3 6 Sudoeste 13 Sur 0 982.8 -1.2 97
2019-08-07 03:00:00 18.2 10 Sur 13 Sur 0 983.2 -1.5 97
2019-08-07 02:00:00 18.3 6 Sur 11 Sur 0 983.7 -0.9 97
2019-08-07 01:00:00 18.4 4 Sudeste 8 Este 0 984 0 98
2019-08-07 00:00:00 18.4 5 Este 18 Oeste 0 984.7 1.2 98
2019-08-06 23:00:00 18.5 12 Oeste 26 Oeste 0 984.6 1.4 97
2019-08-06 22:00:00 19.3 9 Oeste 17 Sudoeste 0 984 0.5 91
2019-08-06 21:00:00 20.2 5 Norte 21 Sur 0 983.5 -1.2 88
2019-08-06 20:00:00 21 12 Sur 18 Sur 0 983.2 -2.7 84
2019-08-06 19:00:00 20.9 9 Sur 17 Sudeste 0 983.5 -2.2 85
2019-08-06 18:00:00 19.8 6 Noroeste 11 Oeste 0.1 984.7 -1.3 93
2019-08-06 17:00:00 20 5 Oeste 18 Sudoeste 0 985.9 0 88
2019-08-06 16:00:00 20.9 8 Norte 26 Oeste 0 985.7 0 83
2019-08-06 15:00:00 21.5 19 Oeste 28 Oeste 0 986 0.3 79
2019-08-06 14:00:00 21.2 14 Oeste 21 Oeste 0 985.9 0.4 79
2019-08-06 13:00:00 22.5 6 Sur 15 Sur 0 985.7 0 73
2019-08-06 12:00:00 20.6 7 Sur 18 Sur 0 985.7 0.3 82
2019-08-06 11:00:00 20.5 9 Sur 17 Sur 0 985.5 0.5 82
2019-08-06 10:00:00 19.7 12 Sur 18 Sur 0 985.7 0.6 83
2019-08-06 09:00:00 18.5 6 Sur 11 Sur 0 985.4 0.5 90
2019-08-06 08:00:00 18.2 5 Sudoeste 11 Oeste 0 985 -0.2 92
2019-08-06 07:00:00 17.7 4 Sudoeste 11 Sudoeste 0 985.1 -0.6 92
2019-08-06 06:00:00 18.4 0 Calma 5 Este 0 984.9 -1.2 91
2019-08-06 05:00:00 18.7 4 Oeste 9 Oeste 0 985.2 -1.3 90
2019-08-06 04:00:00 18.7 6 Oeste 13 Oeste 0 985.7 -1 90
2019-08-06 03:00:00 18.7 8 Sudoeste 13 Sudoeste 0 986.1 -0.6 92
2019-08-06 02:00:00 18.9 5 Oeste 11 Sudoeste 0 986.5 -0.4 89
2019-08-06 01:00:00 19.1 6 Oeste 11 Noroeste 0 986.7 0.4 87
2019-08-06 00:00:00 19.3 2 Este 15 Oeste 0 986.7 0.5 87
2019-08-05 23:00:00 19.5 7 Norte 13 Noroeste 0 986.9 0.6 86
2019-08-05 22:00:00 19.7 4 Oeste 22 Oeste 0 986.3 0 87
2019-08-05 21:00:00 20.1 9 Oeste 18 Oeste 0 986.2 0 85
2019-08-05 20:00:00 21 13 Oeste 22 Oeste 0 986.3 0 80
2019-08-05 19:00:00 22.5 14 Oeste 26 Oeste 0 986.3 -0.2 73
2019-08-05 18:00:00 23.6 14 Oeste 37 Oeste 0 986.2 -0.7 68
2019-08-05 17:00:00 24.1 22 Oeste 30 Oeste 0 986.3 -0.7 62
2019-08-05 16:00:00 24.5 18 Oeste 28 Oeste 0 986.5 -0.7 56
2019-08-05 15:00:00 24.2 21 Oeste 28 Oeste 0 986.9 -0.6 58
2019-08-05 14:00:00 24.2 13 Oeste 24 Sudoeste 0 987 -0.5 57
2019-08-05 13:00:00 24 10 Sudoeste 22 Sudoeste 0 987.2 -0.3 55
2019-08-05 12:00:00 23.2 5 Nordeste 15 Este 0 987.5 0 64
2019-08-05 11:00:00 21.3 7 Este 13 Este 0 987.5 -0.1 70
2019-08-05 10:00:00 17.2 6 Sur 11 Sudoeste 0 987.5 -0.1 86
2019-08-05 09:00:00 15.1 7 Sur 9 Sur 0 987.5 -0.1 98
2019-08-05 08:00:00 14.1 4 Oeste 5 Oeste 0 987.6 -0.1 94
2019-08-05 07:00:00 14.6 3 Norte 5 Norte 0 987.6 -0.3 95
2019-08-05 06:00:00 14.7 0 Calma 5 Noroeste 0 987.6 -0.5 96
2019-08-05 05:00:00 14.9 4 Oeste 5 Oeste 0 987.7 -0.6 95
2019-08-05 04:00:00 15.2 4 Norte 8 Norte 0 987.9 -0.5 94
2019-08-05 03:00:00 15.1 4 Noroeste 8 Oeste 0 988.1 -0.5 92
2019-08-05 02:00:00 15.7 0 Calma 11 Oeste 0 988.3 -0.2 90
2019-08-05 01:00:00 16.1 5 Noroeste 13 Oeste 0 988.4 0.3 90
2019-08-05 00:00:00 16.4 9 Oeste 21 Oeste 0 988.6 0.8 88
2019-08-04 23:00:00 16.8 10 Oeste 24 Noroeste 0 988.5 0.9 85
2019-08-04 22:00:00 17.8 12 Oeste 28 Oeste 0 988.1 0.7 76
2019-08-04 21:00:00 18.9 19 Oeste 33 Sudoeste 0 987.8 0.3 73
2019-08-04 20:00:00 20.6 16 Oeste 26 Oeste 0 987.6 0.2 66
2019-08-04 19:00:00 21.3 18 Oeste 30 Oeste 0 987.4 0.1 65
2019-08-04 18:00:00 21.5 21 Oeste 35 Oeste 0 987.5 0.3 66
2019-08-04 17:00:00 22 22 Oeste 39 Oeste 0 987.4 0.1 64
2019-08-04 16:00:00 22.9 24 Oeste 37 Oeste 0 987.3 -0.2 66
2019-08-04 15:00:00 23 21 Oeste 33 Sudoeste 0 987.2 -0.2 67
2019-08-04 14:00:00 23 17 Oeste 26 Oeste 0 987.3 0.1 69
2019-08-04 13:00:00 21.2 13 Oeste 22 Oeste 0 987.5 0.4 76
2019-08-04 12:00:00 20.8 9 Noroeste 18 Oeste 0 987.4 0.4 78
2019-08-04 11:00:00 21.2 6 Este 13 Este 0 987.2 0.5 79
2019-08-04 10:00:00 19.2 3 Este 11 Este 0 987.1 0.8 86
2019-08-04 09:00:00 17.9 2 Este 8 Norte 0 987 0.6 96
2019-08-04 08:00:00 17.4 6 Oeste 13 Oeste 0 986.7 0.2 94
2019-08-04 07:00:00 17 5 Noroeste 13 Noroeste 0 986.3 -0.2 93
2019-08-04 06:00:00 18 4 Norte 9 Oeste 0 986.4 -0.3 96
2019-08-04 05:00:00 18.4 3 Oeste 9 Oeste 0 986.5 -0.3 95
2019-08-04 04:00:00 18.3 3 Nordeste 8 Norte 0 986.5 -0.2 96
2019-08-04 03:00:00 18.3 4 Norte 9 Oeste 0 986.7 -0.1 95
2019-08-04 02:00:00 18.5 5 Oeste 9 Oeste 0 986.8 -0.1 93
2019-08-04 01:00:00 18.5 5 Sudoeste 11 Sudoeste 0 986.7 0.2 94
2019-08-04 00:00:00 18.9 4 Sur 17 Noroeste 0 986.8 0.6 91
2019-08-03 23:00:00 18.9 8 Oeste 21 Oeste 0 986.9 0.9 91
2019-08-03 22:00:00 18.8 19 Oeste 30 Oeste 0 986.5 0.1 90
2019-08-03 21:00:00 20.8 19 Oeste 28 Oeste 0 986.2 -0.1 77
2019-08-03 20:00:00 21.8 18 Oeste 28 Oeste 0 986 -0.5 75
2019-08-03 19:00:00 22.8 21 Oeste 32 Oeste 0 986.4 -0.2 70
2019-08-03 18:00:00 23.2 23 Oeste 32 Oeste 0 986.3 -0.4 67
2019-08-03 17:00:00 23.8 17 Oeste 32 Oeste 0 986.5 -0.3 63
2019-08-03 16:00:00 23.9 20 Oeste 30 Oeste 0 986.6 -0.1 61
2019-08-03 15:00:00 24.3 20 Oeste 32 Oeste 0 986.7 0.1 53
2019-08-03 14:00:00 24.2 20 Oeste 30 Oeste 0 986.8 0.5 55
2019-08-03 13:00:00 24.3 15 Sudoeste 22 Sudoeste 0 986.7 0.5 59
2019-08-03 12:00:00 24.5 6 Este 13 Nordeste 0 986.6 0.4 63
2019-08-03 11:00:00 23.2 6 Este 13 Este 0 986.3 0.2 73
2019-08-03 10:00:00 19.9 3 Sudeste 8 Este 0 986.2 0.3 83
2019-08-03 09:00:00 16.9 2 Este 9 Oeste 0 986.2 0.3 98
2019-08-03 08:00:00 14.5 2 Este 5 Norte 0 986.1 -0.1 99
2019-08-03 07:00:00 15.2 4 Norte 9 Norte 0 985.9 -0.2 99
2019-08-03 06:00:00 14.8 6 Noroeste 11 Norte 0 985.9 -0.3 98
2019-08-03 05:00:00 15.5 4 Oeste 11 Norte 0 986.2 0 95
2019-08-03 04:00:00 16.6 9 Norte 13 Norte 0 986.1 -0.6 95
2019-08-03 03:00:00 16.1 4 Oeste 9 Norte 0 986.2 -0.9 98
2019-08-03 02:00:00 16.7 8 Norte 11 Norte 0 986.2 -1.2 98
2019-08-03 01:00:00 16.6 5 Noroeste 8 Noroeste 0 986.7 -0.4 96
2019-08-03 00:00:00 17 7 Oeste 9 Oeste 0 987.1 0.1 94
2019-08-02 23:00:00 17.4 10 Oeste 24 Oeste 0 987.4 0.6 95
2019-08-02 22:00:00 17.9 15 Oeste 39 Oeste 0 987.1 0.4 93
2019-08-02 21:00:00 19.6 18 Oeste 30 Oeste 0 987 0.2 82
2019-08-02 20:00:00 21.7 20 Oeste 32 Oeste 0 986.8 -0.4 69
2019-08-02 19:00:00 22.8 20 Oeste 30 Oeste 0 986.7 -0.9 66
2019-08-02 18:00:00 23.8 20 Oeste 32 Oeste 0 986.8 -1 61
2019-08-02 17:00:00 23.9 21 Oeste 33 Oeste 0 987.2 -0.6 62
2019-08-02 16:00:00 23.9 20 Oeste 30 Oeste 0 987.6 -0.1 63
2019-08-02 15:00:00 24.5 20 Oeste 28 Sudoeste 0 987.8 0.2 63
2019-08-02 14:00:00 24.2 16 Oeste 26 Sudoeste 0 987.8 0.2 63
2019-08-02 13:00:00 24.8 11 Sudoeste 17 Oeste 0 987.7 0.1 62
2019-08-02 12:00:00 25.1 8 Este 15 Este 0 987.6 0.4 62
2019-08-02 11:00:00 22.9 6 Este 13 Este 0 987.6 0.7 68
2019-08-02 10:00:00 18.9 6 Sur 13 Sur 0 987.6 0.9 84
2019-08-02 09:00:00 17.1 8 Sur 13 Sur 0 987.2 0.8 90
2019-08-02 08:00:00 15.9 5 Sudoeste 11 Sudeste 0 986.9 0.4 93
2019-08-02 07:00:00 16 4 Sudoeste 8 Sudoeste 0 986.7 0.3 91
2019-08-02 06:00:00 16.2 3 Sudoeste 5 Sudoeste 0 986.4 -0.2 92
2019-08-02 05:00:00 16.7 0 Calma 8 Sudoeste 0 986.5 -0.2 90
2019-08-02 04:00:00 17.2 2 Norte 8 Nordeste 0 986.4 -0.3 87
2019-08-02 03:00:00 17.5 4 Noroeste 5 Noroeste 0 986.6 -0.1 87
2019-08-02 02:00:00 18.3 0 Calma 13 Norte 0 986.7 0.4 83
2019-08-02 01:00:00 18.4 13 Norte 17 Norte 0 986.7 0.9 86
2019-08-02 00:00:00 19.3 8 Norte 17 Norte 0 986.7 1.3 83
2019-08-01 23:00:00 19.4 6 Norte 18 Oeste 0 986.3 1.3 82
2019-08-01 22:00:00 20.2 15 Oeste 26 Oeste 0 985.8 0.9 77
2019-08-01 21:00:00 22.3 18 Oeste 26 Oeste 0 985.4 0.6 68
2019-08-01 20:00:00 23.9 18 Oeste 32 Oeste 0 985 0.2 61
2019-08-01 19:00:00 24 23 Oeste 35 Sudoeste 0 984.9 -0.1 58
2019-08-01 18:00:00 25.3 21 Oeste 35 Oeste 0 984.8 -0.3 55
2019-08-01 17:00:00 24.7 22 Oeste 33 Oeste 0 984.8 -0.3 57
2019-08-01 16:00:00 25.3 17 Oeste 30 Sudoeste 0 985 0 56
2019-08-01 15:00:00 25.3 14 Oeste 24 Oeste 0 985.1 0.1 53
2019-08-01 14:00:00 25.8 8 Este 17 Nordeste 0 985.1 0.4 51
2019-08-01 13:00:00 23.6 4 Nordeste 17 Norte 0 985 0.5 52
2019-08-01 12:00:00 22.1 6 Sur 15 Este 0 985 0.8 63
2019-08-01 11:00:00 19.8 4 Sur 11 Sudeste 0 984.7 0.9 69
2019-08-01 10:00:00 18.1 5 Este 11 Este 0 984.5 0.9 75
2019-08-01 09:00:00 16.5 3 Este 8 Este 0 984.2 0.5 80
2019-08-01 08:00:00 13.2 4 Oeste 5 Sudoeste 0 983.8 -0.2 90
2019-08-01 07:00:00 13.2 0 Calma 11 Norte 0 983.6 -0.5 89
2019-08-01 06:00:00 13.6 4 Nordeste 8 Norte 0 983.7 -0.7 89
2019-08-01 05:00:00 14.2 3 Norte 5 Norte 0 984 -0.5 86
2019-08-01 04:00:00 15 3 Norte 5 Nordeste 0 984.1 -0.7 84
2019-08-01 03:00:00 15.7 5 Nordeste 9 Norte 0 984.4 -0.4 84
2019-08-01 02:00:00 16.7 9 Norte 15 Norte 0 984.5 -0.5 79
2019-08-01 01:00:00 17.1 11 Norte 18 Norte 0 984.8 0.3 79
2019-08-01 00:00:00 18.3 14 Norte 22 Norte 0 984.8 0.4 72
2019-07-31 23:00:00 19.4 15 Norte 28 Norte 0 985 0.5 67
2019-07-31 22:00:00 21.1 19 Norte 30 Norte 0 984.5 -0.2 61
2019-07-31 21:00:00 22.4 20 Norte 32 Norte 0 984.4 -0.7 58
2019-07-31 20:00:00 24.2 20 Norte 33 Norte 0 984.5 -1.1 52
2019-07-31 19:00:00 25.3 17 Norte 26 Norte 0 984.7 -1.5 47
2019-07-31 18:00:00 25.8 13 Norte 22 Norte 0 985.1 -1.6 47
2019-07-31 17:00:00 25.1 15 Norte 28 Norte 0 985.6 -1.2 47
2019-07-31 16:00:00 24.5 10 Norte 21 Norte 0 986.2 -1.1 52
2019-07-31 15:00:00 24 10 Nordeste 17 Nordeste 0 986.7 -1.1 53
2019-07-31 14:00:00 21.8 8 Nordeste 22 Nordeste 0 986.8 -1.2 56
2019-07-31 13:00:00 21.6 13 Norte 21 Norte 0 987.3 -0.5 51
2019-07-31 12:00:00 19.3 6 Norte 15 Norte 0 987.8 -0.2 61
2019-07-31 11:00:00 19 6 Este 11 Sudeste 0 988 0 61
2019-07-31 10:00:00 16.6 5 Este 11 Nordeste 0 987.8 -0.2 72
2019-07-31 09:00:00 13.9 5 Nordeste 13 Norte 0 988 -0.1 74
2019-07-31 08:00:00 13.6 10 Norte 18 Noroeste 0 988 -0.4 72
2019-07-31 07:00:00 11.7 8 Norte 15 Nordeste 0 988 -1.2 87
2019-07-31 06:00:00 11.9 9 Nordeste 24 Norte 0 988.1 -1.4 88
2019-07-31 05:00:00 11.4 8 Nordeste 17 Norte 0 988.4 -1.6 93
2019-07-31 04:00:00 12.3 9 Nordeste 18 Norte 0 989.2 -0.9 90
2019-07-31 03:00:00 14.1 16 Norte 22 Norte 0 989.5 -1.1 79
2019-07-31 02:00:00 14.8 13 Norte 30 Norte 0 990 -0.3 75
2019-07-31 01:00:00 15.3 21 Norte 32 Norte 0 990.1 0 73
2019-07-31 00:00:00 16.1 20 Norte 33 Norte 0 990.6 0.6 70
2019-07-30 23:00:00 16.9 20 Norte 30 Norte 0 990.3 0.4 67
2019-07-30 22:00:00 17.2 8 Norte 18 Norte 0 990.1 0.2 68
2019-07-30 21:00:00 18.4 7 Oeste 30 Oeste 0 990 -0.2 64
2019-07-30 20:00:00 19.7 17 Oeste 33 Noroeste 0 989.9 -0.8 59
2019-07-30 19:00:00 20.9 15 Noroeste 33 Oeste 0 989.9 -1 55
2019-07-30 18:00:00 21.5 19 Noroeste 33 Oeste 0 990.2 -1.2 51
2019-07-30 17:00:00 21 17 Noroeste 39 Noroeste 0 990.7 -1.1 56
2019-07-30 16:00:00 21.2 16 Norte 28 Norte 0 990.9 -1.2 51
2019-07-30 15:00:00 21.5 12 Nordeste 28 Norte 0 991.4 -0.9 45
2019-07-30 14:00:00 20.6 12 Norte 24 Norte 0 991.8 -0.3 50
2019-07-30 13:00:00 19.9 13 Norte 28 Norte 0 992.1 0 57
2019-07-30 12:00:00 18.6 16 Norte 26 Norte 0 992.3 0.5 62
2019-07-30 11:00:00 18.3 10 Nordeste 17 Nordeste 0 992.1 0.6 69
2019-07-30 10:00:00 17.4 7 Este 13 Nordeste 0 992.1 0.9 76
2019-07-30 09:00:00 13.9 3 Sudoeste 8 Oeste 0 991.8 0.7 91
2019-07-30 08:00:00 12.3 0 Calma 17 Oeste 0 991.5 0.8 95
2019-07-30 07:00:00 12.1 3 Norte 9 Noroeste 0 991.2 0.4 94
2019-07-30 06:00:00 12.4 4 Noroeste 5 Noroeste 0 991.1 0.1 95
2019-07-30 05:00:00 12.8 4 Noroeste 8 Noroeste 0 990.7 -0.2 94
2019-07-30 04:00:00 13.2 8 Noroeste 11 Noroeste 0 990.8 0.1 91
2019-07-30 03:00:00 13.7 10 Noroeste -- -- 0 991 0.5 90
2019-07-30 02:00:00 14.7 8 Noroeste 15 Noroeste 0 990.9 1 87
2019-07-30 01:00:00 14.5 8 Noroeste 21 Noroeste 0 990.7 1.5 88
2019-07-30 00:00:00 14.5 8 Oeste 15 Noroeste 0 990.5 1.7 85
2019-07-29 23:00:00 15.2 9 Noroeste 22 Oeste 0 989.9 1.5 84
2019-07-29 22:00:00 16.3 12 Noroeste 30 Noroeste 0 989.2 0.9 80
2019-07-29 21:00:00 17.1 17 Oeste 32 Oeste 0 988.8 0.7 72
2019-07-29 20:00:00 17.4 15 Noroeste 32 Norte 0 988.4 0.6 72
2019-07-29 19:00:00 18.4 14 Noroeste 35 Oeste 0 988.3 0.7 68
2019-07-29 18:00:00 19.4 15 Oeste 37 Oeste 0 988.1 0.8 62
2019-07-29 17:00:00 19.8 19 Oeste 37 Oeste 0 987.8 0.8 61
2019-07-29 16:00:00 19.6 23 Oeste 35 Oeste 0 987.6 1 64
2019-07-29 15:00:00 19.3 17 Oeste 37 Sudoeste 0 987.3 1.2 68
2019-07-29 14:00:00 18.5 18 Oeste 32 Oeste 0.2 987 1.3 74
2019-07-29 13:00:00 18.2 22 Oeste 33 Oeste 0 986.6 1.6 77
2019-07-29 12:00:00 17.9 15 Oeste 30 Oeste 0.2 986.1 1.6 80
2019-07-29 11:00:00 16.7 10 Oeste 32 Oeste 0 985.7 1.8 88
2019-07-29 10:00:00 17.1 6 Oeste 18 Noroeste 0 985 1.7 87
2019-07-29 09:00:00 16.3 6 Sudoeste 11 Sur 0 984.5 1.5 93
2019-07-29 08:00:00 15.9 3 Sur 9 Sur 0 983.9 1.1 95
2019-07-29 07:00:00 16.1 8 Sudoeste 15 Sudoeste 0 983.3 0.8 94
2019-07-29 06:00:00 16.1 9 Oeste 17 Oeste 0 983 0.6 93
2019-07-29 05:00:00 15.8 6 Sudoeste 32 Oeste 1.2 982.8 0.1 97
2019-07-29 04:00:00 15.9 10 Sur 21 Sur 2.6 982.5 -0.3 98
2019-07-29 03:00:00 15.9 9 Sur 18 Sur 0.5 982.4 -0.5 96
2019-07-29 02:00:00 16.1 6 Sur 17 Sur 0 982.7 -0.3 94
2019-07-29 01:00:00 16.2 10 Sur 21 Sur 0 982.8 0.1 90
2019-07-29 00:00:00 16.2 13 Sur 18 Sur 0 982.9 0.6 87
2019-07-28 23:00:00 16.2 8 Sudoeste 24 Oeste 0 983 1.2 79
2019-07-28 22:00:00 16.8 5 Sur 21 Oeste 0 982.7 1.1 77
2019-07-28 21:00:00 18.6 10 Sudoeste 30 Oeste 0 982.3 0.4 70
2019-07-28 20:00:00 19.5 21 Oeste 33 Oeste 0 981.8 -0.2 64
2019-07-28 19:00:00 21.1 21 Oeste 35 Oeste 0 981.6 -1.1 56
2019-07-28 18:00:00 21.4 25 Oeste 37 Sudoeste 0 981.9 -1 51
2019-07-28 17:00:00 22.8 19 Oeste 32 Oeste 0 982 -1.2 47
2019-07-28 16:00:00 22.8 14 Oeste 32 Sudoeste 0 982.7 -0.7 49
2019-07-28 15:00:00 22.8 18 Oeste 26 Oeste 0 982.9 -0.7 51
2019-07-28 14:00:00 22.6 18 Sudoeste 24 Sudoeste 0 983.2 -0.5 52
2019-07-28 13:00:00 22.9 8 Oeste 17 Oeste 0 983.4 -0.2 56
2019-07-28 12:00:00 21.6 9 Sur 15 Sur 0 983.6 0.2 60
2019-07-28 11:00:00 19 8 Sur 15 Sur 0 983.7 0.2 71
2019-07-28 10:00:00 15.7 10 Sur 18 Sur 0 983.6 0.5 82
2019-07-28 09:00:00 14.3 11 Sur 15 Sur 0 983.4 0.2 87
2019-07-28 08:00:00 13.3 5 Sudoeste 13 Oeste 0 983.5 -0.2 92
2019-07-28 07:00:00 12.1 6 Sudoeste 9 Sudoeste 0 983.1 -0.9 92
2019-07-28 06:00:00 13 0 Calma 11 Norte 0 983.2 -1.2 89
2019-07-28 05:00:00 13.4 8 Norte 11 Norte 0 983.7 -0.8 87
2019-07-28 04:00:00 14.2 4 Norte 13 Norte 0 984 -0.5 88
2019-07-28 03:00:00 14.6 6 Nordeste 17 Norte 0 984.4 0.1 95
2019-07-28 02:00:00 15.1 9 Norte 13 Norte 0 984.5 0.5 93
2019-07-28 01:00:00 16 9 Norte 22 Norte 0 984.5 1.3 88
2019-07-28 00:00:00 16.9 12 Norte 30 Norte 0 984.3 1.4 83
2019-07-27 23:00:00 17.9 20 Norte 30 Norte 0 984 1.4 79
2019-07-26 12:00:00 18.7 10 Oeste 21 Oeste 0 987.6 0.5 73
2019-07-26 11:00:00 18.5 4 Oeste 13 Oeste 0 987.7 0.8 78
2019-07-26 10:00:00 18.6 5 Este 11 Este 0 987.6 0.5 84
2019-07-26 09:00:00 16.3 3 Sur 11 Oeste 0 987.1 0.3 93
2019-07-26 08:00:00 15.8 3 Sur 17 Oeste 0 986.9 0.1 96
2019-07-26 07:00:00 15.9 10 Oeste 15 Oeste 0 987.1 0.2 96
2019-07-26 06:00:00 16.4 5 Noroeste 13 Noroeste 0 986.8 -0.2 93
2019-07-26 05:00:00 16.3 5 Oeste 11 Noroeste 0 986.8 -0.5 94
2019-07-26 04:00:00 16.5 0 Calma 17 Noroeste 0 986.9 -0.5 95
2019-07-26 03:00:00 16.9 8 Oeste 13 Sudoeste 0.2 987 -0.3 95
2019-07-26 02:00:00 16.8 6 Oeste 11 Noroeste 1.6 987.3 0 95
2019-07-26 01:00:00 16.9 6 Oeste 17 Oeste 0 987.4 0.8 95
2019-07-26 00:00:00 17.1 12 Oeste 18 Oeste 0 987.3 0.8 93
2019-07-25 23:00:00 17.6 13 Oeste 35 Oeste 0 987.3 1.3 91
2019-07-25 22:00:00 18.1 13 Oeste 32 Oeste 0 986.6 0.9 87
2019-07-25 21:00:00 19.1 12 Oeste 24 Oeste 0 986.5 0.8 79
2019-07-25 20:00:00 19.8 13 Oeste 21 Oeste 0 986 0.5 74
2019-07-25 19:00:00 20.7 16 Sudoeste 30 Oeste 0 985.7 0.2 72
2019-07-25 18:00:00 20.2 16 Oeste 30 Sudoeste 0 985.7 0.2 77
2019-07-25 17:00:00 20.2 15 Oeste 26 Oeste 0 985.5 0.4 81
2019-07-25 16:00:00 20 13 Sudoeste 26 Oeste 0 985.5 0.7 82
2019-07-25 15:00:00 18.9 16 Oeste 28 Oeste 0 985.5 1.6 91
2019-07-25 14:00:00 18.3 5 Sudoeste 37 Sudoeste 0 985.1 1.6 95
2019-07-25 13:00:00 17.5 26 Oeste 42 Sudoeste 2 984.8 1.6 95
2019-07-25 12:00:00 20.3 22 Sur 37 Sudoeste 0 983.9 1 88
2019-07-25 11:00:00 20.3 15 Sur 33 Sur 0 983.5 0.6 90
2019-07-25 10:00:00 19.4 15 Sur 32 Sudeste 0 983.2 0.6 94
2019-07-25 09:00:00 18.7 13 Sur 28 Sur 0 982.9 0.2 97
2019-07-25 08:00:00 18.4 14 Sur 28 Sur 0 982.9 0 98
2019-07-25 07:00:00 18.2 20 Sur 33 Sur 0 982.6 -0.4 99
2019-07-25 06:00:00 18.3 19 Sur 30 Sur 0 982.7 -0.3 98
2019-07-25 05:00:00 18.5 17 Sur 26 Sur 0 982.9 -0.5 97
2019-07-25 04:00:00 19.2 14 Sur 22 Sur 0 983 -0.9 88
2019-07-25 03:00:00 18.7 15 Sur 22 Sur 0 983 -1 90
2019-07-25 02:00:00 18.4 8 Sur 17 Sur 0 983.4 -0.6 90
2019-07-25 01:00:00 18.7 8 Sudoeste 21 Sur 0 983.9 0.2 90
2019-07-25 00:00:00 19.1 10 Sur 17 Sudoeste 0 984 0.2 89
2019-07-24 23:00:00 20 11 Sur 17 Sur 0 984 0.3 84
2019-07-24 22:00:00 20.7 4 Sudoeste 21 Sudoeste 0 983.7 0 81
2019-07-24 21:00:00 22.3 4 Sudoeste 35 Oeste 0 983.8 0 73
2019-07-24 20:00:00 22.7 22 Oeste 33 Oeste 0 983.7 -0.4 72
2019-07-24 19:00:00 22.9 17 Oeste 35 Oeste 0 983.7 -0.9 70
2019-07-24 18:00:00 23.7 21 Oeste 28 Oeste 0 983.8 -0.9 69
2019-07-24 17:00:00 23.5 18 Oeste 30 Sudoeste 0 984.1 -1 68
2019-07-24 16:00:00 22.9 21 Oeste 32 Oeste 0 984.6 -0.4 71
2019-07-24 15:00:00 22 22 Oeste 37 Oeste 0 984.7 -0.2 71
2019-07-24 14:00:00 21.8 23 Oeste 32 Oeste 0 985.1 0.2 71
2019-07-24 13:00:00 22.2 16 Oeste 24 Sudoeste 0 985 0.1 67
2019-07-24 12:00:00 23 8 Sudoeste 15 Oeste 0 984.9 -0.1 65
2019-07-24 11:00:00 22.3 9 Sur 17 Sudoeste 0 984.9 -0.6 66
2019-07-24 10:00:00 17.4 11 Sudoeste 17 Sudoeste 0 984.9 -0.6 88
2019-07-24 09:00:00 15.3 14 Sur 18 Sur 0 985 -0.4 98
2019-07-24 08:00:00 15 8 Sudoeste 11 Sur 0 985.5 0 92
2019-07-24 07:00:00 15.1 3 Oeste 11 Oeste 0 985.5 -0.3 90
2019-07-24 06:00:00 15.1 3 Nordeste 15 Sudoeste 0 985.4 -1.3 95
2019-07-24 05:00:00 14.6 5 Sudoeste 8 Sur 0 985.5 -1.7 92
2019-07-24 04:00:00 15.6 3 Nordeste 9 Noroeste 0 985.8 -1.5 97
2019-07-24 03:00:00 15.8 6 Nordeste 11 Nordeste 0 986.7 -0.5 96
2019-07-24 02:00:00 15.9 6 Noroeste 9 Noroeste 0 987.2 0.3 94
2019-07-24 01:00:00 16.2 9 Oeste 17 Oeste 0 987.3 0.7 96
2019-07-24 00:00:00 17.1 10 Oeste 18 Oeste 0 987.2 0.9 92
2019-07-23 23:00:00 18.4 12 Oeste 15 Oeste 0 986.9 0.3 87
2019-07-23 22:00:00 19.4 10 Oeste 24 Oeste 0 986.6 -0.2 84
2019-07-23 21:00:00 20.9 12 Oeste 26 Sudoeste 0 986.3 -0.5 77
2019-07-23 20:00:00 24.5 8 Sur 13 Sur 0 986.6 -1.1 62
2019-07-23 19:00:00 24 5 Norte 13 Norte 0 986.8 -0.7 64
2019-07-23 18:00:00 22.3 8 Norte 24 Nordeste 0 986.8 -0.2 72
2019-07-23 17:00:00 20.1 12 Oeste 32 Oeste 0 987.7 0.9 82
2019-07-23 16:00:00 21.6 17 Oeste 30 Oeste 0 987.5 1 77
2019-07-23 15:00:00 20.3 10 Oeste 32 Oeste 0 987 0.8 83
2019-07-23 14:00:00 21 24 Oeste 37 Oeste 0 986.8 0.6 81
2019-07-23 13:00:00 22.9 15 Oeste 22 Sudoeste 0 986.5 1 74
2019-07-23 12:00:00 21.6 10 Sudoeste 18 Sudoeste 0 986.2 0.7 76
2019-07-23 11:00:00 19.9 13 Oeste 22 Sudoeste 0 986.2 1 82
2019-07-23 10:00:00 20.4 10 Sudoeste 21 Sur 0 985.5 0 81
2019-07-23 09:00:00 19.7 11 Sur 15 Sudoeste 0 985.5 0.6 83
2019-07-23 08:00:00 17.4 5 Nordeste 13 Sudoeste 0 985.2 0.1 94
2019-07-23 07:00:00 18.3 9 Sudoeste 15 Sudoeste 0 985.5 0.3 90
2019-07-23 06:00:00 18.7 4 Nordeste 11 Oeste 0 984.9 -0.7 87
2019-07-23 05:00:00 19.4 6 Oeste 15 Sudoeste 0 985.1 -0.7 84
2019-07-23 04:00:00 20.6 10 Sudeste 30 Sudeste 0 985.2 -1 79
2019-07-23 03:00:00 21.3 11 Sudoeste 17 Sudoeste 0 985.6 -0.3 77
2019-07-23 02:00:00 20.8 8 Sudoeste 9 Sudoeste 0 985.8 -0.5 80
2019-07-23 01:00:00 21.4 4 Noroeste 11 Noroeste 0 986.2 0.1 79
2019-07-23 00:00:00 21.7 4 Norte 9 Noroeste 0 985.9 -0.2 78
2019-07-22 23:00:00 21.9 4 Noroeste 15 Oeste 0 986.3 0.5 71
2019-07-22 22:00:00 24.2 4 Noroeste 18 Oeste 0 986.1 0.2 65
2019-07-22 21:00:00 26.1 8 Oeste 18 Oeste 0 986.1 -0.2 58
2019-07-22 20:00:00 27.2 9 Oeste 22 Oeste 0 985.8 -0.9 57
2019-07-22 19:00:00 28.5 12 Oeste 22 Oeste 0 985.9 -1.1 54
2019-07-22 18:00:00 30 12 Oeste 22 Oeste 0 986.3 -0.9 47
2019-07-22 17:00:00 30.9 13 Oeste 22 Oeste 0 986.7 -1 49
2019-07-22 16:00:00 30.1 13 Sudoeste 18 Sudoeste 0 987 -0.9 51
2019-07-22 15:00:00 29.9 8 Noroeste 21 Sudoeste 0 987.2 -0.8 52
2019-07-22 14:00:00 27.6 15 Sudoeste 22 Sudoeste 0 987.7 -0.4 56
2019-07-22 13:00:00 28.4 11 Sudoeste 22 Sudoeste 0 987.9 -0.2 54
2019-07-22 12:00:00 25.8 12 Sur 21 Sur 0 988 -0.2 61
2019-07-22 11:00:00 23.8 9 Sur 17 Sur 0 988.1 0 69
2019-07-22 10:00:00 21.4 9 Sur 15 Sur 0 988.1 0.1 77
2019-07-22 09:00:00 19.7 5 Sur 13 Sur 0 988.2 0.1 83
2019-07-22 08:00:00 17.8 9 Sudoeste 15 Sudoeste 0 988.1 0 91
2019-07-22 07:00:00 17.6 10 Sudoeste 17 Sudoeste 0 988 -0.6 91
2019-07-22 06:00:00 17.3 6 Sur 11 Sur 0 988.1 -0.9 88
2019-07-22 05:00:00 16.9 0 Calma 4 Norte 0 988.1 -1.2 84
2019-07-22 04:00:00 17.5 3 Nordeste 8 Noroeste 0 988.6 -1 87
2019-07-22 03:00:00 18.4 3 Nordeste 11 Norte 0 989 -0.6 84
2019-07-22 02:00:00 19.1 8 Norte 41 Norte 0 989.3 -0.3 84
2019-07-22 01:00:00 19.9 9 Norte 18 Norte 0 989.6 0.5 83
2019-07-22 00:00:00 21.2 14 Norte 28 Norte 0 989.6 0.7 77